Scottish Airport Reports

Civil airfields updated at H+20 and H+50
RAF airfields updated at H+50 only

EGPD - Aberdeen
Distance from station: NNE 19mi, 31km
Updated: 15/08/2018 11:20
Clear
Clear
 Wind from SSW
Wind: SSW 8 mph , 13 km/h
Temperature: 17°C
Dew Point: 14°C
Humidity: 83%
Barometer: 1006 hPa
Clouds: Clear
Visibility: 6 miles , 10 km
2018/08/15 10:20 EGPD 151020Z AUTO 20007KT 150V230 9999 NCD 17/14 Q1006 NOSIG
EGPN - Dundee
Distance from station: SW 41mi, 66km
Updated: 15/08/2018 11:20
Partly cloudy
Partly cloudy
 Wind from WSW
Wind: WSW 9 mph , 15 km/h
Temperature: 18°C
Dew Point: 17°C
Humidity: 94%
Barometer: 1006 hPa
Clouds: Partly cloudy
Visibility: 6 miles , 10 km
Cloud details: Partly cloudy 1200 ft
Partly cloudy 2800 ft
2018/08/15 10:20 EGPN 151020Z 25008KT 9999 SCT012 SCT028 18/17 Q1006
 
EGQS - RAF Lossiemouth
Distance from station: NNW 63mi, 102km
Updated: 15/08/2018 10:50
Mostly cloudy
Mostly cloudy
 Wind from NW
Wind: NW 6 mph , 9 km/h
Temperature: 18°C
Dew Point: 14°C
Humidity: 78%
Barometer: 1004 hPa
Clouds: Mostly cloudy
Visibility: 6 miles , 10 km
Cloud details: Few Clouds 2000 ft
Partly cloudy 4500 ft
Mostly cloudy 10000 ft
2018/08/15 09:50 EGQS 150950Z 32005KT 9999 FEW020 SCT045 BKN100 18/14 Q1004 BLU NOSIG
EGPE - Inverness
Distance from station: WNW 73mi, 117km
Updated: 15/08/2018 11:20
Partly cloudy
Partly cloudy
 Wind from SW
Wind: SW 24 mph , 39 km/h
Temperature: 18°C
Dew Point: 12°C
Humidity: 68%
Barometer: 1004 hPa
Clouds: Partly cloudy
Visibility: 6 miles , 10 km
Cloud details: Few Clouds 800 ft
Partly cloudy 2600 ft
2018/08/15 10:20 EGPE 151020Z 23021KT 9999 FEW008 SCT026 18/12 Q1004
 
EGPH - Edinburgh
Distance from station: SSW 77mi, 125km
Updated: 15/08/2018 11:20
Nearby showers, Mostly cloudy
Nearby showers, Mostly cloudy
 Wind from SW
Wind: SW 13 mph , 20 km/h
Temperature: 17°C
Dew Point: 17°C
Humidity: 100%
Barometer: 1007 hPa
Summary: Nearby Showers
Clouds: Mostly cloudy
Visibility: 6 miles , 9 km
Cloud details: Partly cloudy 1300 ft
Mostly cloudy 1800 ft
2018/08/15 10:20 EGPH 151020Z 23011KT 9000 VCSH SCT013TCU BKN018 17/17 Q1007 RESHRA
EGPC - Wick
Distance from station: NNW 107mi, 172km
Updated: 15/08/2018 11:20
Few Clouds
Few Clouds
 Wind from S
Wind: S 7 mph , 11 km/h
Temperature: 16°C
Dew Point: 14°C
Humidity: 88%
Barometer: 1003 hPa
Clouds: Few Clouds
Visibility: 6 miles , 10 km
Cloud details: Few Clouds 1600 ft
2018/08/15 10:20 EGPC 151020Z 17006KT 9999 FEW016 16/14 Q1003
 
EGPF - Glasgow
Distance from station: SW 107mi, 172km
Updated: 15/08/2018 11:20
Light rain, Mostly cloudy
Light rain, Mostly cloudy
 Wind from WSW
Wind: WSW 10 mph , 17 km/h
Temperature: 17°C
Dew Point: 15°C
Humidity: 88%
Barometer: 1008 hPa
Summary: Light rain
Clouds: Mostly cloudy
Visibility: 6 miles , 10 km
Cloud details: Mostly cloudy 1300 ft
Mostly cloudy 2100 ft
Mostly cloudy 2700 ft
2018/08/15 10:20 EGPF 151020Z AUTO 25009KT 9999 -RA BKN013 BKN021 BKN027 17/15 Q1008
EGPK - Prestwick
Distance from station: SW 130mi, 209km
Updated: 15/08/2018 11:20
Mostly cloudy
Mostly cloudy
 Wind from SW
Wind: SW 14 mph , 22 km/h
Temperature: 19°C
Dew Point: 15°C
Humidity: 78%
Barometer: 1008 hPa
Clouds: Mostly cloudy
Visibility: 6 miles , 10 km
Cloud details: Few Clouds 1200 ft
Mostly cloudy 2500 ft
2018/08/15 10:20 EGPK 151020Z 22012KT 9999 FEW012 BKN025 19/15 Q1008
 
EGPA - Kirkwall, Orkney
Distance from station: N 140mi, 225km
Updated: 15/08/2018 11:20
Partly cloudy
Partly cloudy
 Wind from SSW
Wind: SSW 10 mph , 17 km/h
Temperature: 17°C
Dew Point: 14°C
Humidity: 83%
Barometer: 1004 hPa
Clouds: Partly cloudy
Visibility: 6 miles , 10 km
Cloud details: Few Clouds 1000 ft
Partly cloudy 1800 ft
2018/08/15 10:20 EGPA 151020Z 21009KT 9999 FEW010 SCT018 17/14 Q1004
EGPO - Stornoway, Outer Hebrides
Distance from station: WNW 169mi, 273km
Updated: 15/08/2018 11:20
Nearby showers, Mostly cloudy
Nearby showers, Mostly cloudy
 Wind from SW
Wind: SW 20 mph , 31 km/h
Temperature: 15°C
Dew Point: 12°C
Humidity: 82%
Barometer: 1002 hPa
Summary: Nearby Showers
Clouds: Mostly cloudy
Visibility: 6 miles , 10 km
Cloud details: Few Clouds 1500 ft
Mostly cloudy 2800 ft
2018/08/15 10:20 EGPO 151020Z 22017KT 9999 VCSH FEW015 BKN028 15/12 Q1002
 
EGPI - Islay, Inner Hebrides
Distance from station: WSW 172mi, 276km
Updated: 15/08/2018 11:20
Partly cloudy
Partly cloudy
 Wind from SSW
Wind: SSW 8 mph , 13 km/h
Temperature: 15°C
Dew Point: 14°C
Humidity: 94%
Barometer: 1007 hPa
Clouds: Partly cloudy
Visibility: 6 miles , 10 km
Cloud details: Few Clouds 1400 ft
Partly cloudy 3700 ft
2018/08/15 10:20 EGPI 151020Z 20007KT 170V240 9999 FEW014 SCT037 15/14 Q1007
EGPU - Tiree, Inner Hebrides
Distance from station: W 172mi, 276km
Updated: 15/08/2018 11:20
Light rain, Partly cloudy
Light rain, Partly cloudy
 Wind from SSW
Wind: SSW 15 mph , 24 km/h
Temperature: 14°C
Dew Point: 13°C
Humidity: 94%
Barometer: 1005 hPa
Summary: Light rain
Clouds: Partly cloudy
Visibility: 6 miles , 10 km
Cloud details: Partly cloudy 2800 ft
Partly cloudy 3400 ft
2018/08/15 10:20 EGPU 151020Z 21013KT 9999 -RA SCT028 SCT034 14/13 Q1005
 
EGPB - Sumburgh, Shetland
Distance from station: NNE 208mi, 332km
Updated: 15/08/2018 11:20
Mostly cloudy
Mostly cloudy
 Wind from S
Wind: S 12 mph , 19 km/h
Temperature: 15°C
Dew Point: 13°C
Humidity: 88%
Barometer: 1004 hPa
Clouds: Mostly cloudy
Visibility: 6 miles , 10 km
Cloud details: Few Clouds 900 ft
Partly cloudy 2900 ft
Mostly cloudy 3800 ft
2018/08/15 10:20 EGPB 151020Z 18010KT 9999 FEW009 SCT029 BKN038 15/13 Q1004
EGPM - Scatsa, Shetland
Distance from station: NNE 245mi, 392km
Updated: 15/08/2018 11:20
Few Clouds
Few Clouds
 Wind from SSW
Wind: SSW 20 mph , 31 km/h
Temperature: 15°C
Dew Point: 10°C
Humidity: 72%
Barometer: 1003 hPa
Clouds: Few Clouds
Visibility: 6 miles , 10 km
Cloud details: Few Clouds 1400 ft
2018/08/15 10:20 EGPM 151020Z 21017KT 9999 FEW014 15/10 Q1003 NOSIG
-->